sensor_id;sensor_type;location;lat;lon;timestamp;P1;durP1;ratioP1;P2;durP2;ratioP2
3405;SDS011;10008;48.682;9.016;2023-04-24T07:34:47;9.20;;;8.50;;
3405;SDS011;10008;48.682;9.016;2023-04-24T07:37:13;9.70;;;9.00;;
3405;SDS011;10008;48.682;9.016;2023-04-24T07:39:38;9.47;;;8.67;;
3405;SDS011;10008;48.682;9.016;2023-04-24T07:42:04;10.10;;;9.20;;
3405;SDS011;10008;48.682;9.016;2023-04-24T07:44:30;10.00;;;9.10;;
3405;SDS011;10008;48.682;9.016;2023-04-24T07:46:57;12.70;;;9.97;;
3405;SDS011;10008;48.682;9.016;2023-04-24T07:49:22;10.47;;;9.57;;
3405;SDS011;10008;48.682;9.016;2023-04-24T07:51:48;10.10;;;9.20;;
3405;SDS011;10008;48.682;9.016;2023-04-24T07:54:14;9.90;;;9.10;;
3405;SDS011;10008;48.682;9.016;2023-04-24T07:56:41;9.13;;;8.43;;
3405;SDS011;10008;48.682;9.016;2023-04-24T07:59:09;9.10;;;8.40;;
3405;SDS011;10008;48.682;9.016;2023-04-24T08:01:36;9.47;;;8.77;;
3405;SDS011;10008;48.682;9.016;2023-04-24T08:04:02;9.50;;;8.70;;
3405;SDS011;10008;48.682;9.016;2023-04-24T08:06:28;10.23;;;8.77;;
3405;SDS011;10008;48.682;9.016;2023-04-24T08:08:55;9.60;;;8.80;;
3405;SDS011;10008;48.682;9.016;2023-04-24T08:11:21;9.97;;;9.07;;
3405;SDS011;10008;48.682;9.016;2023-04-24T08:13:47;9.97;;;9.07;;
3405;SDS011;10008;48.682;9.016;2023-04-24T08:16:13;10.50;;;9.53;;
3405;SDS011;10008;48.682;9.016;2023-04-24T08:18:39;10.70;;;9.80;;
3405;SDS011;10008;48.682;9.016;2023-04-24T08:21:04;9.93;;;9.13;;
3405;SDS011;10008;48.682;9.016;2023-04-24T08:23:30;11.40;;;10.40;;
3405;SDS011;10008;48.682;9.016;2023-04-24T08:25:56;11.40;;;10.30;;
3405;SDS011;10008;48.682;9.016;2023-04-24T08:28:22;11.83;;;10.73;;
3405;SDS011;10008;48.682;9.016;2023-04-24T08:30:48;11.60;;;10.40;;
3405;SDS011;10008;48.682;9.016;2023-04-24T08:33:19;11.60;;;10.47;;
3405;SDS011;10008;48.682;9.016;2023-04-24T08:35:46;11.37;;;10.37;;
3405;SDS011;10008;48.682;9.016;2023-04-24T08:38:12;11.70;;;10.80;;
3405;SDS011;10008;48.682;9.016;2023-04-24T08:40:38;11.70;;;10.50;;
3405;SDS011;10008;48.682;9.016;2023-04-24T08:43:04;11.50;;;10.50;;
3405;SDS011;10008;48.682;9.016;2023-04-24T08:45:30;10.90;;;10.00;;
3405;SDS011;10008;48.682;9.016;2023-04-24T08:47:58;11.00;;;9.67;;
3405;SDS011;10008;48.682;9.016;2023-04-24T08:50:25;10.57;;;9.67;;
3405;SDS011;10008;48.682;9.016;2023-04-24T08:52:51;9.90;;;9.20;;
3405;SDS011;10008;48.682;9.016;2023-04-24T08:55:19;10.40;;;9.50;;
3405;SDS011;10008;48.682;9.016;2023-04-24T08:57:46;11.37;;;10.37;;
3405;SDS011;10008;48.682;9.016;2023-04-24T09:00:17;13.27;;;10.77;;
3405;SDS011;10008;48.682;9.016;2023-04-24T09:02:43;11.60;;;10.60;;
3405;SDS011;10008;48.682;9.016;2023-04-24T09:05:12;12.40;;;11.30;;
3405;SDS011;10008;48.682;9.016;2023-04-24T09:07:39;12.10;;;11.10;;
3405;SDS011;10008;48.682;9.016;2023-04-24T09:10:09;11.43;;;10.40;;
3405;SDS011;10008;48.682;9.016;2023-04-24T09:12:35;11.70;;;10.70;;
3405;SDS011;10008;48.682;9.016;2023-04-24T09:15:02;12.70;;;11.50;;
3405;SDS011;10008;48.682;9.016;2023-04-24T09:17:30;13.13;;;11.90;;
3405;SDS011;10008;48.682;9.016;2023-04-24T09:19:56;13.40;;;12.30;;
3405;SDS011;10008;48.682;9.016;2023-04-24T09:22:21;13.10;;;11.90;;
3405;SDS011;10008;48.682;9.016;2023-04-24T09:24:47;13.33;;;12.13;;
3405;SDS011;10008;48.682;9.016;2023-04-24T09:27:13;13.00;;;11.70;;
3405;SDS011;10008;48.682;9.016;2023-04-24T09:29:53;14.03;;;12.57;;
3405;SDS011;10008;48.682;9.016;2023-04-24T09:32:22;13.40;;;12.20;;
3405;SDS011;10008;48.682;9.016;2023-04-24T09:35:04;13.30;;;12.20;;
3405;SDS011;10008;48.682;9.016;2023-04-24T09:37:34;13.47;;;12.37;;
3405;SDS011;10008;48.682;9.016;2023-04-24T09:42:38;13.63;;;12.33;;
3405;SDS011;10008;48.682;9.016;2023-04-24T09:45:08;13.80;;;12.60;;
3405;SDS011;10008;48.682;9.016;2023-04-24T09:47:39;13.30;;;12.20;;
3405;SDS011;10008;48.682;9.016;2023-04-24T09:50:12;13.30;;;11.97;;
3405;SDS011;10008;48.682;9.016;2023-04-24T09:52:42;13.40;;;12.20;;
3405;SDS011;10008;48.682;9.016;2023-04-24T09:55:13;12.80;;;11.80;;
3405;SDS011;10008;48.682;9.016;2023-04-24T09:57:53;13.07;;;11.97;;
3405;SDS011;10008;48.682;9.016;2023-04-24T10:00:22;13.30;;;12.10;;
3405;SDS011;10008;48.682;9.016;2023-04-24T10:02:58;13.00;;;11.90;;
3405;SDS011;10008;48.682;9.016;2023-04-24T10:05:29;12.90;;;11.80;;
3405;SDS011;10008;48.682;9.016;2023-04-24T10:07:57;12.90;;;11.70;;
3405;SDS011;10008;48.682;9.016;2023-04-24T10:10:34;13.30;;;12.20;;
3405;SDS011;10008;48.682;9.016;2023-04-24T10:13:03;13.73;;;12.30;;
3405;SDS011;10008;48.682;9.016;2023-04-24T10:15:29;14.87;;;13.67;;
3405;SDS011;10008;48.682;9.016;2023-04-24T10:17:57;12.70;;;11.60;;
3405;SDS011;10008;48.682;9.016;2023-04-24T10:20:28;13.20;;;12.00;;
3405;SDS011;10008;48.682;9.016;2023-04-24T10:22:56;12.73;;;11.70;;
3405;SDS011;10008;48.682;9.016;2023-04-24T10:25:23;12.77;;;11.77;;
3405;SDS011;10008;48.682;9.016;2023-04-24T10:27:51;12.50;;;11.50;;
3405;SDS011;10008;48.682;9.016;2023-04-24T10:30:18;12.50;;;11.40;;
3405;SDS011;10008;48.682;9.016;2023-04-24T10:32:45;12.07;;;11.10;;
3405;SDS011;10008;48.682;9.016;2023-04-24T10:35:12;12.17;;;11.17;;
3405;SDS011;10008;48.682;9.016;2023-04-24T10:37:39;12.80;;;11.67;;
3405;SDS011;10008;48.682;9.016;2023-04-24T10:40:24;12.90;;;11.90;;
3405;SDS011;10008;48.682;9.016;2023-04-24T10:42:58;12.20;;;11.20;;
3405;SDS011;10008;48.682;9.016;2023-04-24T10:45:24;13.63;;;12.53;;
3405;SDS011;10008;48.682;9.016;2023-04-24T10:47:51;13.07;;;11.87;;
3405;SDS011;10008;48.682;9.016;2023-04-24T10:50:25;12.90;;;11.70;;
3405;SDS011;10008;48.682;9.016;2023-04-24T10:52:52;12.33;;;11.33;;
3405;SDS011;10008;48.682;9.016;2023-04-24T10:55:40;12.00;;;11.10;;
3405;SDS011;10008;48.682;9.016;2023-04-24T10:58:06;12.33;;;11.20;;
3405;SDS011;10008;48.682;9.016;2023-04-24T11:00:32;12.17;;;11.17;;
3405;SDS011;10008;48.682;9.016;2023-04-24T11:02:58;11.90;;;10.90;;
3405;SDS011;10008;48.682;9.016;2023-04-24T11:05:49;12.60;;;11.50;;
3405;SDS011;10008;48.682;9.016;2023-04-24T11:08:21;12.70;;;11.60;;
3405;SDS011;10008;48.682;9.016;2023-04-24T11:10:58;12.40;;;11.30;;
3405;SDS011;10008;48.682;9.016;2023-04-24T11:14:15;12.63;;;11.63;;
3405;SDS011;10008;48.682;9.016;2023-04-24T11:24:37;13.03;;;12.00;;
3405;SDS011;10008;48.682;9.016;2023-04-24T11:27:17;11.90;;;10.90;;
3405;SDS011;10008;48.682;9.016;2023-04-24T11:29:46;12.10;;;11.10;;
3405;SDS011;10008;48.682;9.016;2023-04-24T11:32:28;11.70;;;10.70;;
3405;SDS011;10008;48.682;9.016;2023-04-24T11:35:06;11.60;;;10.60;;
3405;SDS011;10008;48.682;9.016;2023-04-24T11:37:42;11.67;;;10.50;;
3405;SDS011;10008;48.682;9.016;2023-04-24T11:40:16;11.60;;;10.70;;
3405;SDS011;10008;48.682;9.016;2023-04-24T11:42:48;12.10;;;11.10;;
3405;SDS011;10008;48.682;9.016;2023-04-24T11:47:46;11.67;;;10.70;;
3405;SDS011;10008;48.682;9.016;2023-04-24T11:50:16;11.57;;;10.37;;
3405;SDS011;10008;48.682;9.016;2023-04-24T11:52:46;12.20;;;11.20;;
3405;SDS011;10008;48.682;9.016;2023-04-24T11:57:42;12.20;;;11.13;;
3405;SDS011;10008;48.682;9.016;2023-04-24T12:00:15;12.30;;;11.30;;
3405;SDS011;10008;48.682;9.016;2023-04-24T12:02:42;11.77;;;10.77;;
3405;SDS011;10008;48.682;9.016;2023-04-24T12:05:08;12.13;;;11.00;;
3405;SDS011;10008;48.682;9.016;2023-04-24T12:07:41;12.00;;;11.00;;
3405;SDS011;10008;48.682;9.016;2023-04-24T12:10:09;12.13;;;11.13;;
3405;SDS011;10008;48.682;9.016;2023-04-24T12:12:35;12.67;;;11.57;;
3405;SDS011;10008;48.682;9.016;2023-04-24T12:15:01;12.03;;;11.03;;
3405;SDS011;10008;48.682;9.016;2023-04-24T12:17:33;13.30;;;12.10;;
3405;SDS011;10008;48.682;9.016;2023-04-24T12:20:05;12.67;;;11.60;;
3405;SDS011;10008;48.682;9.016;2023-04-24T12:25:19;12.40;;;11.40;;
3405;SDS011;10008;48.682;9.016;2023-04-24T12:27:51;12.50;;;11.40;;
3405;SDS011;10008;48.682;9.016;2023-04-24T12:30:18;12.63;;;11.40;;
3405;SDS011;10008;48.682;9.016;2023-04-24T12:32:45;11.70;;;10.70;;
3405;SDS011;10008;48.682;9.016;2023-04-24T12:35:13;11.87;;;10.97;;
3405;SDS011;10008;48.682;9.016;2023-04-24T12:37:43;12.00;;;11.00;;
3405;SDS011;10008;48.682;9.016;2023-04-24T12:40:09;11.80;;;10.80;;
3405;SDS011;10008;48.682;9.016;2023-04-24T12:42:41;11.57;;;10.67;;
3405;SDS011;10008;48.682;9.016;2023-04-24T12:45:08;11.40;;;10.50;;
3405;SDS011;10008;48.682;9.016;2023-04-24T12:47:37;11.47;;;10.47;;
3405;SDS011;10008;48.682;9.016;2023-04-24T12:50:03;11.83;;;10.93;;
3405;SDS011;10008;48.682;9.016;2023-04-24T12:52:31;11.60;;;10.60;;
3405;SDS011;10008;48.682;9.016;2023-04-24T12:54:58;11.80;;;10.90;;
3405;SDS011;10008;48.682;9.016;2023-04-24T12:57:25;11.57;;;10.67;;
3405;SDS011;10008;48.682;9.016;2023-04-24T12:59:54;12.10;;;11.10;;
3405;SDS011;10008;48.682;9.016;2023-04-24T13:02:21;11.70;;;10.70;;
3405;SDS011;10008;48.682;9.016;2023-04-24T13:04:48;11.50;;;10.60;;
3405;SDS011;10008;48.682;9.016;2023-04-24T13:07:14;11.90;;;11.00;;
3405;SDS011;10008;48.682;9.016;2023-04-24T13:09:41;11.37;;;10.47;;
3405;SDS011;10008;48.682;9.016;2023-04-24T13:12:07;11.77;;;10.77;;
3405;SDS011;10008;48.682;9.016;2023-04-24T13:14:34;11.40;;;10.50;;
3405;SDS011;10008;48.682;9.016;2023-04-24T13:17:00;11.40;;;10.40;;
3405;SDS011;10008;48.682;9.016;2023-04-24T13:19:27;12.10;;;11.00;;
3405;SDS011;10008;48.682;9.016;2023-04-24T13:21:53;12.13;;;11.13;;
3405;SDS011;10008;48.682;9.016;2023-04-24T13:24:20;11.30;;;10.20;;
3405;SDS011;10008;48.682;9.016;2023-04-24T13:26:50;11.40;;;10.40;;
3405;SDS011;10008;48.682;9.016;2023-04-24T13:29:16;11.47;;;10.40;;
3405;SDS011;10008;48.682;9.016;2023-04-24T13:31:42;11.20;;;10.30;;
3405;SDS011;10008;48.682;9.016;2023-04-24T13:34:08;11.40;;;10.50;;
3405;SDS011;10008;48.682;9.016;2023-04-24T13:36:34;11.20;;;10.30;;
3405;SDS011;10008;48.682;9.016;2023-04-24T13:39:00;10.80;;;9.90;;
3405;SDS011;10008;48.682;9.016;2023-04-24T13:41:26;11.60;;;10.60;;
3405;SDS011;10008;48.682;9.016;2023-04-24T13:43:52;11.10;;;10.10;;
3405;SDS011;10008;48.682;9.016;2023-04-24T13:46:17;10.50;;;9.60;;
3405;SDS011;10008;48.682;9.016;2023-04-24T13:48:43;11.60;;;10.70;;
3405;SDS011;10008;48.682;9.016;2023-04-24T13:51:09;11.77;;;10.77;;
3405;SDS011;10008;48.682;9.016;2023-04-24T13:53:35;13.03;;;11.93;;
3405;SDS011;10008;48.682;9.016;2023-04-24T13:56:03;12.80;;;11.70;;
3405;SDS011;10008;48.682;9.016;2023-04-24T13:58:30;12.83;;;11.70;;
3405;SDS011;10008;48.682;9.016;2023-04-24T14:00:57;11.90;;;10.90;;
3405;SDS011;10008;48.682;9.016;2023-04-24T14:03:23;12.70;;;11.70;;
3405;SDS011;10008;48.682;9.016;2023-04-24T14:05:48;12.60;;;11.47;;
3405;SDS011;10008;48.682;9.016;2023-04-24T14:08:14;12.20;;;11.10;;
3405;SDS011;10008;48.682;9.016;2023-04-24T14:10:40;12.27;;;11.27;;
3405;SDS011;10008;48.682;9.016;2023-04-24T14:13:07;11.67;;;10.57;;
3405;SDS011;10008;48.682;9.016;2023-04-24T14:15:35;11.13;;;10.13;;
3405;SDS011;10008;48.682;9.016;2023-04-24T14:18:01;8.90;;;8.10;;
3405;SDS011;10008;48.682;9.016;2023-04-24T14:20:26;8.00;;;6.50;;
3405;SDS011;10008;48.682;9.016;2023-04-24T14:22:52;7.53;;;6.77;;
3405;SDS011;10008;48.682;9.016;2023-04-24T14:25:18;8.03;;;7.23;;
3405;SDS011;10008;48.682;9.016;2023-04-24T14:27:44;8.10;;;7.00;;
3405;SDS011;10008;48.682;9.016;2023-04-24T14:30:10;9.20;;;5.60;;
3405;SDS011;10008;48.682;9.016;2023-04-24T14:32:38;7.13;;;6.43;;
3405;SDS011;10008;48.682;9.016;2023-04-24T14:35:05;8.60;;;7.43;;
3405;SDS011;10008;48.682;9.016;2023-04-24T14:37:31;9.27;;;8.43;;
3405;SDS011;10008;48.682;9.016;2023-04-24T14:39:57;8.03;;;7.13;;
3405;SDS011;10008;48.682;9.016;2023-04-24T14:42:23;9.90;;;9.00;;
3405;SDS011;10008;48.682;9.016;2023-04-24T14:44:49;10.20;;;9.30;;
3405;SDS011;10008;48.682;9.016;2023-04-24T14:47:16;11.23;;;10.23;;
3405;SDS011;10008;48.682;9.016;2023-04-24T14:49:47;11.90;;;10.90;;
3405;SDS011;10008;48.682;9.016;2023-04-24T14:52:15;12.00;;;10.93;;
3405;SDS011;10008;48.682;9.016;2023-04-24T14:54:41;12.50;;;11.40;;
3405;SDS011;10008;48.682;9.016;2023-04-24T14:57:07;12.83;;;11.73;;
3405;SDS011;10008;48.682;9.016;2023-04-24T14:59:33;12.40;;;11.30;;
3405;SDS011;10008;48.682;9.016;2023-04-24T15:01:59;11.70;;;10.70;;
3405;SDS011;10008;48.682;9.016;2023-04-24T15:04:25;11.77;;;10.77;;
3405;SDS011;10008;48.682;9.016;2023-04-24T15:06:52;11.40;;;10.40;;
3405;SDS011;10008;48.682;9.016;2023-04-24T15:09:21;12.60;;;11.60;;
3405;SDS011;10008;48.682;9.016;2023-04-24T15:11:48;11.57;;;10.57;;
3405;SDS011;10008;48.682;9.016;2023-04-24T15:14:15;12.40;;;11.20;;
3405;SDS011;10008;48.682;9.016;2023-04-24T15:16:41;11.27;;;10.37;;
3405;SDS011;10008;48.682;9.016;2023-04-24T15:19:07;11.00;;;10.10;;
3405;SDS011;10008;48.682;9.016;2023-04-24T15:21:35;10.93;;;10.03;;
3405;SDS011;10008;48.682;9.016;2023-04-24T15:24:01;11.60;;;10.40;;
3405;SDS011;10008;48.682;9.016;2023-04-24T15:26:27;11.07;;;10.07;;
3405;SDS011;10008;48.682;9.016;2023-04-24T15:28:53;10.73;;;9.77;;
3405;SDS011;10008;48.682;9.016;2023-04-24T15:31:19;11.20;;;9.83;;
3405;SDS011;10008;48.682;9.016;2023-04-24T15:33:47;11.30;;;10.40;;
3405;SDS011;10008;48.682;9.016;2023-04-24T15:36:14;11.10;;;10.10;;
3405;SDS011;10008;48.682;9.016;2023-04-24T15:38:40;11.20;;;10.20;;
3405;SDS011;10008;48.682;9.016;2023-04-24T15:41:07;10.83;;;9.93;;
3405;SDS011;10008;48.682;9.016;2023-04-24T15:43:33;11.37;;;10.37;;
3405;SDS011;10008;48.682;9.016;2023-04-24T15:45:59;11.40;;;10.40;;
3405;SDS011;10008;48.682;9.016;2023-04-24T15:48:29;11.20;;;10.20;;
3405;SDS011;10008;48.682;9.016;2023-04-24T15:50:54;10.93;;;9.97;;
3405;SDS011;10008;48.682;9.016;2023-04-24T15:53:20;11.90;;;10.80;;
3405;SDS011;10008;48.682;9.016;2023-04-24T15:55:50;11.60;;;10.50;;
3405;SDS011;10008;48.682;9.016;2023-04-24T15:58:16;11.10;;;10.20;;
3405;SDS011;10008;48.682;9.016;2023-04-24T16:00:43;12.00;;;11.00;;
3405;SDS011;10008;48.682;9.016;2023-04-24T16:03:09;12.17;;;11.07;;
3405;SDS011;10008;48.682;9.016;2023-04-24T16:05:35;22.07;;;11.20;;
3405;SDS011;10008;48.682;9.016;2023-04-24T16:08:00;12.03;;;11.03;;
3405;SDS011;10008;48.682;9.016;2023-04-24T16:10:26;11.87;;;10.80;;
3405;SDS011;10008;48.682;9.016;2023-04-24T16:12:52;11.87;;;10.87;;
3405;SDS011;10008;48.682;9.016;2023-04-24T16:15:21;11.93;;;10.93;;
3405;SDS011;10008;48.682;9.016;2023-04-24T16:17:48;11.50;;;10.50;;
3405;SDS011;10008;48.682;9.016;2023-04-24T16:20:14;12.37;;;11.37;;
3405;SDS011;10008;48.682;9.016;2023-04-24T16:22:40;12.20;;;11.10;;
3405;SDS011;10008;48.682;9.016;2023-04-24T16:25:06;11.83;;;10.83;;
3405;SDS011;10008;48.682;9.016;2023-04-24T16:27:33;11.63;;;10.73;;
3405;SDS011;10008;48.682;9.016;2023-04-24T16:29:59;12.07;;;11.07;;
3405;SDS011;10008;48.682;9.016;2023-04-24T16:32:25;12.30;;;11.20;;
3405;SDS011;10008;48.682;9.016;2023-04-24T16:34:51;12.00;;;10.90;;
3405;SDS011;10008;48.682;9.016;2023-04-24T16:37:17;11.80;;;10.80;;
3405;SDS011;10008;48.682;9.016;2023-04-24T16:39:44;11.93;;;10.93;;
3405;SDS011;10008;48.682;9.016;2023-04-24T16:42:14;11.13;;;10.23;;
3405;SDS011;10008;48.682;9.016;2023-04-24T16:44:41;11.73;;;10.60;;
3405;SDS011;10008;48.682;9.016;2023-04-24T16:47:08;11.10;;;10.20;;
3405;SDS011;10008;48.682;9.016;2023-04-24T16:49:35;10.90;;;10.00;;
3405;SDS011;10008;48.682;9.016;2023-04-24T16:52:02;12.23;;;11.03;;
3405;SDS011;10008;48.682;9.016;2023-04-24T16:54:28;10.93;;;10.03;;
3405;SDS011;10008;48.682;9.016;2023-04-24T16:57:00;10.33;;;9.53;;
3405;SDS011;10008;48.682;9.016;2023-04-24T16:59:28;10.33;;;9.53;;
3405;SDS011;10008;48.682;9.016;2023-04-24T17:01:57;11.10;;;10.20;;
3405;SDS011;10008;48.682;9.016;2023-04-24T17:04:23;10.97;;;10.07;;
3405;SDS011;10008;48.682;9.016;2023-04-24T17:06:48;10.67;;;9.87;;
3405;SDS011;10008;48.682;9.016;2023-04-24T17:09:14;11.03;;;10.13;;
3405;SDS011;10008;48.682;9.016;2023-04-24T17:11:41;11.03;;;10.23;;
3405;SDS011;10008;48.682;9.016;2023-04-24T17:14:07;11.03;;;10.23;;
3405;SDS011;10008;48.682;9.016;2023-04-24T17:16:33;10.90;;;10.10;;
3405;SDS011;10008;48.682;9.016;2023-04-24T17:19:00;10.73;;;9.93;;
3405;SDS011;10008;48.682;9.016;2023-04-24T17:21:26;10.43;;;9.53;;
3405;SDS011;10008;48.682;9.016;2023-04-24T17:23:52;11.17;;;10.20;;
3405;SDS011;10008;48.682;9.016;2023-04-24T17:26:18;10.47;;;9.57;;
3405;SDS011;10008;48.682;9.016;2023-04-24T17:28:44;10.30;;;9.50;;
3405;SDS011;10008;48.682;9.016;2023-04-24T17:31:10;11.17;;;10.27;;
3405;SDS011;10008;48.682;9.016;2023-04-24T17:33:36;11.27;;;10.27;;
3405;SDS011;10008;48.682;9.016;2023-04-24T17:36:01;11.00;;;10.20;;
3405;SDS011;10008;48.682;9.016;2023-04-24T17:38:28;10.87;;;9.93;;
3405;SDS011;10008;48.682;9.016;2023-04-24T17:40:54;10.50;;;9.60;;
3405;SDS011;10008;48.682;9.016;2023-04-24T17:43:20;10.17;;;9.37;;
3405;SDS011;10008;48.682;9.016;2023-04-24T17:45:47;9.80;;;9.00;;
3405;SDS011;10008;48.682;9.016;2023-04-24T17:48:17;10.70;;;9.80;;
3405;SDS011;10008;48.682;9.016;2023-04-24T17:50:44;10.40;;;9.40;;
3405;SDS011;10008;48.682;9.016;2023-04-24T17:53:10;9.93;;;9.13;;
3405;SDS011;10008;48.682;9.016;2023-04-24T17:55:36;10.87;;;9.97;;
3405;SDS011;10008;48.682;9.016;2023-04-24T17:58:03;10.90;;;9.80;;
3405;SDS011;10008;48.682;9.016;2023-04-24T18:00:33;10.40;;;9.50;;
3405;SDS011;10008;48.682;9.016;2023-04-24T18:02:59;10.83;;;9.90;;
3405;SDS011;10008;48.682;9.016;2023-04-24T18:05:29;10.60;;;9.70;;
3405;SDS011;10008;48.682;9.016;2023-04-24T18:07:56;10.87;;;10.00;;
3405;SDS011;10008;48.682;9.016;2023-04-24T18:10:22;10.40;;;9.40;;
3405;SDS011;10008;48.682;9.016;2023-04-24T18:12:49;10.97;;;9.93;;
3405;SDS011;10008;48.682;9.016;2023-04-24T18:15:16;10.33;;;9.43;;
3405;SDS011;10008;48.682;9.016;2023-04-24T18:17:45;10.37;;;9.47;;
3405;SDS011;10008;48.682;9.016;2023-04-24T18:50:38;9.83;;;9.03;;
3405;SDS011;10008;48.682;9.016;2023-04-24T18:53:05;9.20;;;8.43;;
3405;SDS011;10008;48.682;9.016;2023-04-24T18:55:34;9.60;;;8.80;;
3405;SDS011;10008;48.682;9.016;2023-04-24T18:58:00;9.20;;;8.40;;
3405;SDS011;10008;48.682;9.016;2023-04-24T19:00:26;9.50;;;8.60;;
3405;SDS011;10008;48.682;9.016;2023-04-24T19:02:52;9.23;;;8.33;;
3405;SDS011;10008;48.682;9.016;2023-04-24T19:05:18;8.53;;;7.43;;
3405;SDS011;10008;48.682;9.016;2023-04-24T19:07:44;8.57;;;7.77;;
3405;SDS011;10008;48.682;9.016;2023-04-24T19:10:10;8.00;;;7.30;;
3405;SDS011;10008;48.682;9.016;2023-04-24T19:12:37;7.53;;;6.83;;
3405;SDS011;10008;48.682;9.016;2023-04-24T19:15:03;7.87;;;7.07;;
3405;SDS011;10008;48.682;9.016;2023-04-24T19:17:29;7.50;;;6.73;;
3405;SDS011;10008;48.682;9.016;2023-04-24T19:19:55;8.20;;;6.10;;
3405;SDS011;10008;48.682;9.016;2023-04-24T19:22:22;6.47;;;5.77;;
3405;SDS011;10008;48.682;9.016;2023-04-24T19:24:47;6.10;;;5.50;;
3405;SDS011;10008;48.682;9.016;2023-04-24T19:27:13;7.20;;;6.50;;
3405;SDS011;10008;48.682;9.016;2023-04-24T19:29:39;5.97;;;5.17;;
3405;SDS011;10008;48.682;9.016;2023-04-24T19:32:06;5.90;;;5.00;;
3405;SDS011;10008;48.682;9.016;2023-04-24T19:34:32;8.20;;;4.90;;
3405;SDS011;10008;48.682;9.016;2023-04-24T19:36:59;6.83;;;4.90;;
3405;SDS011;10008;48.682;9.016;2023-04-24T19:39:25;7.50;;;5.00;;
3405;SDS011;10008;48.682;9.016;2023-04-24T19:41:51;6.13;;;5.50;;
3405;SDS011;10008;48.682;9.016;2023-04-24T19:44:16;5.90;;;5.30;;
3405;SDS011;10008;48.682;9.016;2023-04-24T19:46:42;6.63;;;5.70;;
3405;SDS011;10008;48.682;9.016;2023-04-24T19:49:08;6.67;;;5.97;;
3405;SDS011;10008;48.682;9.016;2023-04-24T19:51:34;6.03;;;5.27;;
3405;SDS011;10008;48.682;9.016;2023-04-24T19:54:00;7.27;;;5.37;;
3405;SDS011;10008;48.682;9.016;2023-04-24T19:56:26;8.13;;;6.33;;
3405;SDS011;10008;48.682;9.016;2023-04-24T19:58:52;5.47;;;4.90;;
3405;SDS011;10008;48.682;9.016;2023-04-24T20:01:18;7.53;;;5.67;;
3405;SDS011;10008;48.682;9.016;2023-04-24T20:03:43;7.43;;;5.87;;
3405;SDS011;10008;48.682;9.016;2023-04-24T20:06:09;9.30;;;6.00;;
3405;SDS011;10008;48.682;9.016;2023-04-24T20:08:35;6.77;;;5.43;;
3405;SDS011;10008;48.682;9.016;2023-04-24T20:11:03;6.03;;;4.20;;
3405;SDS011;10008;48.682;9.016;2023-04-24T20:13:30;5.80;;;4.13;;
3405;SDS011;10008;48.682;9.016;2023-04-24T20:15:57;6.43;;;4.47;;
3405;SDS011;10008;48.682;9.016;2023-04-24T20:18:23;6.47;;;4.37;;
3405;SDS011;10008;48.682;9.016;2023-04-24T20:20:49;6.27;;;4.70;;
3405;SDS011;10008;48.682;9.016;2023-04-24T20:23:18;6.50;;;4.27;;
3405;SDS011;10008;48.682;9.016;2023-04-24T20:25:43;7.57;;;5.20;;
3405;SDS011;10008;48.682;9.016;2023-04-24T20:28:09;6.53;;;4.80;;
3405;SDS011;10008;48.682;9.016;2023-04-24T20:30:35;8.53;;;5.73;;
3405;SDS011;10008;48.682;9.016;2023-04-24T20:33:02;7.63;;;4.80;;
3405;SDS011;10008;48.682;9.016;2023-04-24T20:35:27;6.67;;;5.03;;
3405;SDS011;10008;48.682;9.016;2023-04-24T20:37:53;5.70;;;4.63;;
3405;SDS011;10008;48.682;9.016;2023-04-24T20:40:19;6.17;;;4.93;;
3405;SDS011;10008;48.682;9.016;2023-04-24T20:42:46;6.37;;;5.03;;
3405;SDS011;10008;48.682;9.016;2023-04-24T20:45:11;6.00;;;4.50;;
3405;SDS011;10008;48.682;9.016;2023-04-24T20:47:37;5.90;;;5.27;;
3405;SDS011;10008;48.682;9.016;2023-04-24T20:50:03;9.47;;;5.47;;
3405;SDS011;10008;48.682;9.016;2023-04-24T20:52:30;8.33;;;5.50;;
3405;SDS011;10008;48.682;9.016;2023-04-24T20:54:56;8.83;;;5.47;;
3405;SDS011;10008;48.682;9.016;2023-04-24T20:57:22;6.77;;;5.00;;
3405;SDS011;10008;48.682;9.016;2023-04-24T20:59:48;6.87;;;5.10;;
3405;SDS011;10008;48.682;9.016;2023-04-24T21:02:14;6.40;;;5.30;;
3405;SDS011;10008;48.682;9.016;2023-04-24T21:04:39;6.90;;;5.40;;
3405;SDS011;10008;48.682;9.016;2023-04-24T21:07:05;7.40;;;4.90;;
3405;SDS011;10008;48.682;9.016;2023-04-24T21:09:33;8.60;;;5.53;;
3405;SDS011;10008;48.682;9.016;2023-04-24T21:11:59;6.90;;;5.30;;
3405;SDS011;10008;48.682;9.016;2023-04-24T21:14:24;6.20;;;4.83;;
3405;SDS011;10008;48.682;9.016;2023-04-24T21:16:50;7.40;;;5.40;;
3405;SDS011;10008;48.682;9.016;2023-04-24T21:19:16;9.00;;;5.40;;
3405;SDS011;10008;48.682;9.016;2023-04-24T21:21:41;6.63;;;5.80;;
3405;SDS011;10008;48.682;9.016;2023-04-24T21:24:07;6.63;;;5.47;;
3405;SDS011;10008;48.682;9.016;2023-04-24T21:26:33;6.03;;;5.23;;
3405;SDS011;10008;48.682;9.016;2023-04-24T21:28:59;7.50;;;5.93;;
3405;SDS011;10008;48.682;9.016;2023-04-24T21:31:25;7.63;;;5.80;;
3405;SDS011;10008;48.682;9.016;2023-04-24T21:33:50;7.13;;;5.00;;
3405;SDS011;10008;48.682;9.016;2023-04-24T21:36:16;5.70;;;4.90;;
3405;SDS011;10008;48.682;9.016;2023-04-24T21:38:42;7.77;;;5.23;;
3405;SDS011;10008;48.682;9.016;2023-04-24T21:41:08;7.10;;;5.60;;
3405;SDS011;10008;48.682;9.016;2023-04-24T21:43:33;6.50;;;5.43;;
3405;SDS011;10008;48.682;9.016;2023-04-24T21:45:59;6.80;;;5.30;;
3405;SDS011;10008;48.682;9.016;2023-04-24T21:48:25;9.30;;;5.20;;
3405;SDS011;10008;48.682;9.016;2023-04-24T21:50:51;6.80;;;5.20;;
3405;SDS011;10008;48.682;9.016;2023-04-24T21:53:16;5.70;;;4.43;;
3405;SDS011;10008;48.682;9.016;2023-04-24T21:55:43;6.07;;;4.93;;
3405;SDS011;10008;48.682;9.016;2023-04-24T21:58:09;6.60;;;4.67;;
3405;SDS011;10008;48.682;9.016;2023-04-24T22:00:36;7.63;;;5.97;;
3405;SDS011;10008;48.682;9.016;2023-04-24T22:03:02;8.07;;;5.70;;
3405;SDS011;10008;48.682;9.016;2023-04-24T22:05:28;7.50;;;5.07;;
3405;SDS011;10008;48.682;9.016;2023-04-24T22:07:55;7.90;;;5.43;;
3405;SDS011;10008;48.682;9.016;2023-04-24T22:10:23;7.13;;;5.60;;
3405;SDS011;10008;48.682;9.016;2023-04-24T22:12:49;6.27;;;5.00;;
3405;SDS011;10008;48.682;9.016;2023-04-24T22:15:15;5.90;;;4.87;;
3405;SDS011;10008;48.682;9.016;2023-04-24T22:17:41;6.97;;;5.40;;
3405;SDS011;10008;48.682;9.016;2023-04-24T22:20:07;5.83;;;5.00;;
3405;SDS011;10008;48.682;9.016;2023-04-24T22:22:33;6.33;;;5.17;;
3405;SDS011;10008;48.682;9.016;2023-04-24T22:25:00;7.80;;;5.03;;
3405;SDS011;10008;48.682;9.016;2023-04-24T22:27:26;6.93;;;5.20;;
3405;SDS011;10008;48.682;9.016;2023-04-24T22:29:51;6.30;;;4.67;;
3405;SDS011;10008;48.682;9.016;2023-04-24T22:32:17;7.07;;;5.93;;
3405;SDS011;10008;48.682;9.016;2023-04-24T22:34:43;6.70;;;5.27;;
3405;SDS011;10008;48.682;9.016;2023-04-24T22:37:09;7.00;;;5.50;;
3405;SDS011;10008;48.682;9.016;2023-04-24T22:39:35;7.50;;;6.20;;
3405;SDS011;10008;48.682;9.016;2023-04-24T22:42:00;7.43;;;5.70;;
3405;SDS011;10008;48.682;9.016;2023-04-24T22:44:26;14.03;;;5.70;;
3405;SDS011;10008;48.682;9.016;2023-04-24T22:46:52;6.80;;;5.80;;
3405;SDS011;10008;48.682;9.016;2023-04-24T22:49:18;6.60;;;5.40;;
3405;SDS011;10008;48.682;9.016;2023-04-24T22:51:46;7.07;;;5.83;;
3405;SDS011;10008;48.682;9.016;2023-04-24T22:54:12;7.37;;;5.97;;
3405;SDS011;10008;48.682;9.016;2023-04-24T22:56:38;7.70;;;6.20;;
3405;SDS011;10008;48.682;9.016;2023-04-24T22:59:04;9.40;;;6.20;;
3405;SDS011;10008;48.682;9.016;2023-04-24T23:01:30;6.80;;;5.97;;
3405;SDS011;10008;48.682;9.016;2023-04-24T23:03:56;7.47;;;6.10;;
3405;SDS011;10008;48.682;9.016;2023-04-24T23:06:22;6.83;;;5.90;;
3405;SDS011;10008;48.682;9.016;2023-04-24T23:08:48;7.07;;;6.27;;